sensor_id;sensor_type;location;lat;lon;timestamp;temperature;humidity
30678;DHT22;17437;47.188;8.896;2022-10-16T00:00:32;14.50;99.90
30678;DHT22;17437;47.188;8.896;2022-10-16T00:03:03;14.60;99.90
30678;DHT22;17437;47.188;8.896;2022-10-16T00:05:40;14.50;99.90
30678;DHT22;17437;47.188;8.896;2022-10-16T00:08:12;14.60;99.90
30678;DHT22;17437;47.188;8.896;2022-10-16T00:10:43;14.60;99.90
30678;DHT22;17437;47.188;8.896;2022-10-16T00:13:15;14.60;99.90
30678;DHT22;17437;47.188;8.896;2022-10-16T00:15:47;14.60;99.90
30678;DHT22;17437;47.188;8.896;2022-10-16T00:18:18;14.60;99.90
30678;DHT22;17437;47.188;8.896;2022-10-16T00:20:51;14.70;99.90
30678;DHT22;17437;47.188;8.896;2022-10-16T00:23:22;14.70;99.90
30678;DHT22;17437;47.188;8.896;2022-10-16T00:25:58;14.80;99.90
30678;DHT22;17437;47.188;8.896;2022-10-16T00:28:30;14.80;99.90
30678;DHT22;17437;47.188;8.896;2022-10-16T00:31:04;14.80;99.90
30678;DHT22;17437;47.188;8.896;2022-10-16T00:33:36;14.80;99.90
30678;DHT22;17437;47.188;8.896;2022-10-16T00:36:10;14.80;99.90
30678;DHT22;17437;47.188;8.896;2022-10-16T00:38:42;14.80;99.90
30678;DHT22;17437;47.188;8.896;2022-10-16T00:41:16;14.80;99.90
30678;DHT22;17437;47.188;8.896;2022-10-16T00:43:49;14.80;99.90
30678;DHT22;17437;47.188;8.896;2022-10-16T00:46:23;14.80;99.90
30678;DHT22;17437;47.188;8.896;2022-10-16T00:48:59;14.80;99.90
30678;DHT22;17437;47.188;8.896;2022-10-16T00:51:34;14.90;99.90
30678;DHT22;17437;47.188;8.896;2022-10-16T00:54:08;15.10;99.90
30678;DHT22;17437;47.188;8.896;2022-10-16T00:56:40;15.00;99.90
30678;DHT22;17437;47.188;8.896;2022-10-16T00:59:15;15.10;99.90
30678;DHT22;17437;47.188;8.896;2022-10-16T01:01:48;15.10;99.90
30678;DHT22;17437;47.188;8.896;2022-10-16T01:04:20;15.00;99.90
30678;DHT22;17437;47.188;8.896;2022-10-16T01:06:58;14.90;99.90
30678;DHT22;17437;47.188;8.896;2022-10-16T01:09:29;14.90;99.90
30678;DHT22;17437;47.188;8.896;2022-10-16T01:12:06;14.80;99.90
30678;DHT22;17437;47.188;8.896;2022-10-16T01:14:42;14.70;99.90
30678;DHT22;17437;47.188;8.896;2022-10-16T01:17:15;14.80;99.90
30678;DHT22;17437;47.188;8.896;2022-10-16T01:20:02;14.80;99.90
30678;DHT22;17437;47.188;8.896;2022-10-16T01:22:38;14.80;99.90
30678;DHT22;17437;47.188;8.896;2022-10-16T01:25:14;14.80;99.90
30678;DHT22;17437;47.188;8.896;2022-10-16T01:27:46;14.80;99.90
30678;DHT22;17437;47.188;8.896;2022-10-16T01:30:22;14.60;99.90
30678;DHT22;17437;47.188;8.896;2022-10-16T01:32:56;14.50;99.90
30678;DHT22;17437;47.188;8.896;2022-10-16T01:35:30;14.40;99.90
30678;DHT22;17437;47.188;8.896;2022-10-16T01:38:05;14.40;99.90
30678;DHT22;17437;47.188;8.896;2022-10-16T01:40:39;14.30;99.90
30678;DHT22;17437;47.188;8.896;2022-10-16T01:43:14;14.30;99.90
30678;DHT22;17437;47.188;8.896;2022-10-16T01:45:46;14.30;99.90
30678;DHT22;17437;47.188;8.896;2022-10-16T01:48:19;14.20;99.90
30678;DHT22;17437;47.188;8.896;2022-10-16T01:50:55;14.20;99.90
30678;DHT22;17437;47.188;8.896;2022-10-16T01:53:28;14.10;99.90
30678;DHT22;17437;47.188;8.896;2022-10-16T01:56:01;14.10;99.90
30678;DHT22;17437;47.188;8.896;2022-10-16T01:58:37;14.10;99.90
30678;DHT22;17437;47.188;8.896;2022-10-16T02:01:10;14.10;99.90
30678;DHT22;17437;47.188;8.896;2022-10-16T02:03:44;14.10;99.90
30678;DHT22;17437;47.188;8.896;2022-10-16T02:06:16;14.00;99.90
30678;DHT22;17437;47.188;8.896;2022-10-16T02:08:47;14.00;99.90
30678;DHT22;17437;47.188;8.896;2022-10-16T02:11:18;14.00;99.90
30678;DHT22;17437;47.188;8.896;2022-10-16T02:13:53;13.90;99.90
30678;DHT22;17437;47.188;8.896;2022-10-16T02:16:33;13.90;99.90
30678;DHT22;17437;47.188;8.896;2022-10-16T02:19:06;13.80;99.90
30678;DHT22;17437;47.188;8.896;2022-10-16T02:21:40;13.80;99.90
30678;DHT22;17437;47.188;8.896;2022-10-16T02:24:16;13.70;99.90
30678;DHT22;17437;47.188;8.896;2022-10-16T02:26:49;13.60;99.90
30678;DHT22;17437;47.188;8.896;2022-10-16T02:29:24;13.60;99.90
30678;DHT22;17437;47.188;8.896;2022-10-16T02:31:59;13.50;99.90
30678;DHT22;17437;47.188;8.896;2022-10-16T02:34:32;13.40;99.90
30678;DHT22;17437;47.188;8.896;2022-10-16T02:37:06;13.40;99.90
30678;DHT22;17437;47.188;8.896;2022-10-16T02:39:38;13.30;99.90
30678;DHT22;17437;47.188;8.896;2022-10-16T02:42:11;13.20;99.90
30678;DHT22;17437;47.188;8.896;2022-10-16T02:44:44;13.10;99.90
30678;DHT22;17437;47.188;8.896;2022-10-16T02:47:15;13.10;99.90
30678;DHT22;17437;47.188;8.896;2022-10-16T02:49:47;13.00;99.90
30678;DHT22;17437;47.188;8.896;2022-10-16T02:52:18;13.00;99.90
30678;DHT22;17437;47.188;8.896;2022-10-16T02:54:49;13.00;99.90
30678;DHT22;17437;47.188;8.896;2022-10-16T02:57:21;12.90;99.90
30678;DHT22;17437;47.188;8.896;2022-10-16T02:59:52;12.90;99.90
30678;DHT22;17437;47.188;8.896;2022-10-16T03:02:24;12.80;99.90
30678;DHT22;17437;47.188;8.896;2022-10-16T03:04:55;12.80;99.90
30678;DHT22;17437;47.188;8.896;2022-10-16T03:07:27;12.80;99.90
30678;DHT22;17437;47.188;8.896;2022-10-16T03:09:58;12.70;99.90
30678;DHT22;17437;47.188;8.896;2022-10-16T03:12:30;12.70;99.90
30678;DHT22;17437;47.188;8.896;2022-10-16T03:15:02;12.70;99.90
30678;DHT22;17437;47.188;8.896;2022-10-16T03:17:33;12.60;99.90
30678;DHT22;17437;47.188;8.896;2022-10-16T03:20:06;12.60;99.90
30678;DHT22;17437;47.188;8.896;2022-10-16T03:22:38;12.60;99.90
30678;DHT22;17437;47.188;8.896;2022-10-16T03:25:09;12.50;99.90
30678;DHT22;17437;47.188;8.896;2022-10-16T03:27:40;12.50;99.90
30678;DHT22;17437;47.188;8.896;2022-10-16T03:30:13;12.40;99.90
30678;DHT22;17437;47.188;8.896;2022-10-16T03:32:45;12.30;99.90
30678;DHT22;17437;47.188;8.896;2022-10-16T03:35:16;12.20;99.90
30678;DHT22;17437;47.188;8.896;2022-10-16T03:37:47;12.30;99.90
30678;DHT22;17437;47.188;8.896;2022-10-16T03:40:18;12.30;99.90
30678;DHT22;17437;47.188;8.896;2022-10-16T03:42:51;12.20;99.90
30678;DHT22;17437;47.188;8.896;2022-10-16T03:45:24;12.20;99.90
30678;DHT22;17437;47.188;8.896;2022-10-16T03:47:56;12.20;99.90
30678;DHT22;17437;47.188;8.896;2022-10-16T03:50:27;12.20;99.90
30678;DHT22;17437;47.188;8.896;2022-10-16T03:52:58;12.20;99.90
30678;DHT22;17437;47.188;8.896;2022-10-16T03:55:29;12.20;99.90
30678;DHT22;17437;47.188;8.896;2022-10-16T03:58:00;12.10;99.90
30678;DHT22;17437;47.188;8.896;2022-10-16T04:00:33;12.10;99.90
30678;DHT22;17437;47.188;8.896;2022-10-16T04:03:05;12.20;99.90
30678;DHT22;17437;47.188;8.896;2022-10-16T04:05:36;12.30;99.90
30678;DHT22;17437;47.188;8.896;2022-10-16T04:08:08;12.30;99.90
30678;DHT22;17437;47.188;8.896;2022-10-16T04:10:39;12.40;99.90
30678;DHT22;17437;47.188;8.896;2022-10-16T04:13:10;12.50;99.90
30678;DHT22;17437;47.188;8.896;2022-10-16T04:15:42;12.50;99.90
30678;DHT22;17437;47.188;8.896;2022-10-16T04:18:13;12.50;99.90
30678;DHT22;17437;47.188;8.896;2022-10-16T04:20:45;12.50;99.90
30678;DHT22;17437;47.188;8.896;2022-10-16T04:23:16;12.50;99.90
30678;DHT22;17437;47.188;8.896;2022-10-16T04:25:47;12.50;99.90
30678;DHT22;17437;47.188;8.896;2022-10-16T04:28:19;12.50;99.90
30678;DHT22;17437;47.188;8.896;2022-10-16T04:30:50;12.50;99.90
30678;DHT22;17437;47.188;8.896;2022-10-16T04:33:21;12.60;99.90
30678;DHT22;17437;47.188;8.896;2022-10-16T04:35:58;12.60;99.90
30678;DHT22;17437;47.188;8.896;2022-10-16T04:38:29;12.60;99.90
30678;DHT22;17437;47.188;8.896;2022-10-16T04:41:01;12.70;99.90
30678;DHT22;17437;47.188;8.896;2022-10-16T04:43:32;12.80;99.90
30678;DHT22;17437;47.188;8.896;2022-10-16T04:46:04;12.90;99.90
30678;DHT22;17437;47.188;8.896;2022-10-16T04:48:35;13.00;99.90
30678;DHT22;17437;47.188;8.896;2022-10-16T04:51:07;13.10;99.90
30678;DHT22;17437;47.188;8.896;2022-10-16T04:53:38;13.10;99.90
30678;DHT22;17437;47.188;8.896;2022-10-16T04:56:09;13.20;99.90
30678;DHT22;17437;47.188;8.896;2022-10-16T04:58:41;13.20;99.90
30678;DHT22;17437;47.188;8.896;2022-10-16T05:01:12;13.20;99.90
30678;DHT22;17437;47.188;8.896;2022-10-16T05:03:43;13.30;99.90
30678;DHT22;17437;47.188;8.896;2022-10-16T05:06:15;13.20;99.90
30678;DHT22;17437;47.188;8.896;2022-10-16T05:08:46;13.10;99.90
30678;DHT22;17437;47.188;8.896;2022-10-16T05:11:16;13.10;99.90
30678;DHT22;17437;47.188;8.896;2022-10-16T05:13:47;13.00;99.90
30678;DHT22;17437;47.188;8.896;2022-10-16T05:16:20;13.00;99.90
30678;DHT22;17437;47.188;8.896;2022-10-16T05:18:51;12.90;99.90
30678;DHT22;17437;47.188;8.896;2022-10-16T05:21:25;12.90;99.90
30678;DHT22;17437;47.188;8.896;2022-10-16T05:23:56;12.90;99.90
30678;DHT22;17437;47.188;8.896;2022-10-16T05:26:27;12.80;99.90
30678;DHT22;17437;47.188;8.896;2022-10-16T05:28:58;12.70;99.90
30678;DHT22;17437;47.188;8.896;2022-10-16T05:31:30;12.70;99.90
30678;DHT22;17437;47.188;8.896;2022-10-16T05:34:01;12.60;99.90
30678;DHT22;17437;47.188;8.896;2022-10-16T05:36:33;12.50;99.90
30678;DHT22;17437;47.188;8.896;2022-10-16T05:39:04;12.40;99.90
30678;DHT22;17437;47.188;8.896;2022-10-16T05:41:35;12.40;99.90
30678;DHT22;17437;47.188;8.896;2022-10-16T05:44:07;12.30;99.90
30678;DHT22;17437;47.188;8.896;2022-10-16T05:46:38;12.30;99.90
30678;DHT22;17437;47.188;8.896;2022-10-16T05:49:09;12.20;99.90
30678;DHT22;17437;47.188;8.896;2022-10-16T05:51:41;12.30;99.90
30678;DHT22;17437;47.188;8.896;2022-10-16T05:54:12;12.40;99.90
30678;DHT22;17437;47.188;8.896;2022-10-16T05:56:44;12.50;99.90
30678;DHT22;17437;47.188;8.896;2022-10-16T05:59:16;12.60;99.90
30678;DHT22;17437;47.188;8.896;2022-10-16T06:01:47;12.80;99.90
30678;DHT22;17437;47.188;8.896;2022-10-16T06:04:19;12.90;99.90
30678;DHT22;17437;47.188;8.896;2022-10-16T06:06:50;12.90;99.90
30678;DHT22;17437;47.188;8.896;2022-10-16T06:09:21;12.90;99.90
30678;DHT22;17437;47.188;8.896;2022-10-16T06:11:52;13.00;99.90
30678;DHT22;17437;47.188;8.896;2022-10-16T06:14:24;13.00;99.90
30678;DHT22;17437;47.188;8.896;2022-10-16T06:16:55;13.00;99.90
30678;DHT22;17437;47.188;8.896;2022-10-16T06:19:26;12.90;99.90
30678;DHT22;17437;47.188;8.896;2022-10-16T06:21:58;12.90;99.90
30678;DHT22;17437;47.188;8.896;2022-10-16T06:24:29;12.90;99.90
30678;DHT22;17437;47.188;8.896;2022-10-16T06:27:00;12.90;99.90
30678;DHT22;17437;47.188;8.896;2022-10-16T06:29:31;13.10;99.90
30678;DHT22;17437;47.188;8.896;2022-10-16T06:32:03;13.20;99.90
30678;DHT22;17437;47.188;8.896;2022-10-16T06:34:35;13.40;99.90
30678;DHT22;17437;47.188;8.896;2022-10-16T06:37:08;13.50;99.90
30678;DHT22;17437;47.188;8.896;2022-10-16T06:39:40;13.60;99.90
30678;DHT22;17437;47.188;8.896;2022-10-16T06:42:11;13.80;99.90
30678;DHT22;17437;47.188;8.896;2022-10-16T06:44:42;13.90;99.90
30678;DHT22;17437;47.188;8.896;2022-10-16T06:47:14;13.90;99.90
30678;DHT22;17437;47.188;8.896;2022-10-16T06:49:45;14.00;99.90
30678;DHT22;17437;47.188;8.896;2022-10-16T06:52:18;14.00;99.90
30678;DHT22;17437;47.188;8.896;2022-10-16T06:54:50;14.00;99.90
30678;DHT22;17437;47.188;8.896;2022-10-16T06:57:21;14.10;99.90
30678;DHT22;17437;47.188;8.896;2022-10-16T06:59:52;14.20;99.90
30678;DHT22;17437;47.188;8.896;2022-10-16T07:02:24;14.20;99.90
30678;DHT22;17437;47.188;8.896;2022-10-16T07:04:56;14.30;99.90
30678;DHT22;17437;47.188;8.896;2022-10-16T07:07:27;14.40;99.90
30678;DHT22;17437;47.188;8.896;2022-10-16T07:09:59;14.40;99.90
30678;DHT22;17437;47.188;8.896;2022-10-16T07:12:30;14.60;99.90
30678;DHT22;17437;47.188;8.896;2022-10-16T07:15:03;14.70;99.90
30678;DHT22;17437;47.188;8.896;2022-10-16T07:17:34;14.70;99.90
30678;DHT22;17437;47.188;8.896;2022-10-16T07:20:07;14.70;99.90
30678;DHT22;17437;47.188;8.896;2022-10-16T07:22:38;14.70;99.90
30678;DHT22;17437;47.188;8.896;2022-10-16T07:25:10;14.80;99.90
30678;DHT22;17437;47.188;8.896;2022-10-16T07:27:42;15.00;99.90
30678;DHT22;17437;47.188;8.896;2022-10-16T07:30:14;15.10;99.90
30678;DHT22;17437;47.188;8.896;2022-10-16T07:32:45;15.20;99.90
30678;DHT22;17437;47.188;8.896;2022-10-16T07:35:17;15.30;99.90
30678;DHT22;17437;47.188;8.896;2022-10-16T07:37:48;15.40;99.90
30678;DHT22;17437;47.188;8.896;2022-10-16T07:40:19;15.50;99.90
30678;DHT22;17437;47.188;8.896;2022-10-16T07:42:50;15.60;99.90
30678;DHT22;17437;47.188;8.896;2022-10-16T07:45:22;15.60;99.90
30678;DHT22;17437;47.188;8.896;2022-10-16T07:47:53;15.70;99.90
30678;DHT22;17437;47.188;8.896;2022-10-16T07:50:24;15.80;99.90
30678;DHT22;17437;47.188;8.896;2022-10-16T07:52:55;16.00;99.90
30678;DHT22;17437;47.188;8.896;2022-10-16T07:55:27;16.20;99.90
30678;DHT22;17437;47.188;8.896;2022-10-16T07:57:58;16.20;99.90
30678;DHT22;17437;47.188;8.896;2022-10-16T08:00:29;16.40;99.90
30678;DHT22;17437;47.188;8.896;2022-10-16T08:03:00;16.60;99.90
30678;DHT22;17437;47.188;8.896;2022-10-16T08:05:34;16.80;99.90
30678;DHT22;17437;47.188;8.896;2022-10-16T08:08:05;17.00;99.90
30678;DHT22;17437;47.188;8.896;2022-10-16T08:10:37;17.20;99.90
30678;DHT22;17437;47.188;8.896;2022-10-16T08:13:09;17.40;99.90
30678;DHT22;17437;47.188;8.896;2022-10-16T08:15:40;17.50;99.90
30678;DHT22;17437;47.188;8.896;2022-10-16T08:18:13;17.70;99.90
30678;DHT22;17437;47.188;8.896;2022-10-16T08:20:44;17.80;99.90
30678;DHT22;17437;47.188;8.896;2022-10-16T08:23:16;17.70;99.90
30678;DHT22;17437;47.188;8.896;2022-10-16T08:25:47;17.80;99.90
30678;DHT22;17437;47.188;8.896;2022-10-16T08:28:18;17.90;99.90
30678;DHT22;17437;47.188;8.896;2022-10-16T08:30:50;17.90;99.90
30678;DHT22;17437;47.188;8.896;2022-10-16T08:33:21;18.10;99.90
30678;DHT22;17437;47.188;8.896;2022-10-16T08:35:53;18.10;99.90
30678;DHT22;17437;47.188;8.896;2022-10-16T08:38:24;18.10;99.90
30678;DHT22;17437;47.188;8.896;2022-10-16T08:41:00;18.10;99.90
30678;DHT22;17437;47.188;8.896;2022-10-16T08:43:39;18.00;99.90
30678;DHT22;17437;47.188;8.896;2022-10-16T08:46:20;17.90;99.90
30678;DHT22;17437;47.188;8.896;2022-10-16T08:48:54;17.80;99.90
30678;DHT22;17437;47.188;8.896;2022-10-16T08:51:29;17.60;99.90
30678;DHT22;17437;47.188;8.896;2022-10-16T08:54:03;17.40;99.90
30678;DHT22;17437;47.188;8.896;2022-10-16T08:56:34;17.30;99.90
30678;DHT22;17437;47.188;8.896;2022-10-16T08:59:10;17.00;99.90
30678;DHT22;17437;47.188;8.896;2022-10-16T09:01:43;16.90;99.90
30678;DHT22;17437;47.188;8.896;2022-10-16T09:04:31;16.70;99.90
30678;DHT22;17437;47.188;8.896;2022-10-16T09:07:04;16.50;99.90
30678;DHT22;17437;47.188;8.896;2022-10-16T09:09:48;16.30;99.90
30678;DHT22;17437;47.188;8.896;2022-10-16T09:12:21;16.10;99.90
30678;DHT22;17437;47.188;8.896;2022-10-16T09:15:03;16.00;99.90
30678;DHT22;17437;47.188;8.896;2022-10-16T09:17:40;15.80;99.90
30678;DHT22;17437;47.188;8.896;2022-10-16T09:20:22;15.70;99.90
30678;DHT22;17437;47.188;8.896;2022-10-16T09:22:55;15.60;99.90
30678;DHT22;17437;47.188;8.896;2022-10-16T09:25:28;15.50;99.90
30678;DHT22;17437;47.188;8.896;2022-10-16T09:28:00;15.50;99.90
30678;DHT22;17437;47.188;8.896;2022-10-16T09:30:31;15.40;99.90
30678;DHT22;17437;47.188;8.896;2022-10-16T09:33:03;15.40;99.90
30678;DHT22;17437;47.188;8.896;2022-10-16T09:35:37;15.40;99.90
30678;DHT22;17437;47.188;8.896;2022-10-16T09:38:09;15.40;99.90
30678;DHT22;17437;47.188;8.896;2022-10-16T09:40:43;15.40;99.90
30678;DHT22;17437;47.188;8.896;2022-10-16T09:43:20;15.40;99.90
30678;DHT22;17437;47.188;8.896;2022-10-16T09:46:00;15.40;99.90
30678;DHT22;17437;47.188;8.896;2022-10-16T09:48:35;15.30;99.90
30678;DHT22;17437;47.188;8.896;2022-10-16T09:51:16;15.30;99.90
30678;DHT22;17437;47.188;8.896;2022-10-16T09:53:48;15.40;99.90
30678;DHT22;17437;47.188;8.896;2022-10-16T09:56:24;15.40;99.90
30678;DHT22;17437;47.188;8.896;2022-10-16T09:58:57;15.40;99.90
30678;DHT22;17437;47.188;8.896;2022-10-16T10:01:35;15.40;99.90
30678;DHT22;17437;47.188;8.896;2022-10-16T10:04:04;15.50;99.90
30678;DHT22;17437;47.188;8.896;2022-10-16T10:06:37;15.70;99.90
30678;DHT22;17437;47.188;8.896;2022-10-16T10:09:18;15.80;99.90
30678;DHT22;17437;47.188;8.896;2022-10-16T10:11:52;15.90;99.90
30678;DHT22;17437;47.188;8.896;2022-10-16T10:14:43;16.10;99.90
30678;DHT22;17437;47.188;8.896;2022-10-16T10:17:18;16.30;99.90
30678;DHT22;17437;47.188;8.896;2022-10-16T10:19:52;16.50;99.90
30678;DHT22;17437;47.188;8.896;2022-10-16T10:22:27;16.70;99.90
30678;DHT22;17437;47.188;8.896;2022-10-16T10:25:18;16.80;99.90
30678;DHT22;17437;47.188;8.896;2022-10-16T10:30:46;17.20;99.90
30678;DHT22;17437;47.188;8.896;2022-10-16T10:33:24;17.30;99.90
30678;DHT22;17437;47.188;8.896;2022-10-16T10:36:00;17.50;99.90
30678;DHT22;17437;47.188;8.896;2022-10-16T10:38:37;17.60;99.90
30678;DHT22;17437;47.188;8.896;2022-10-16T10:41:22;17.70;99.90
30678;DHT22;17437;47.188;8.896;2022-10-16T10:44:01;17.80;99.90
30678;DHT22;17437;47.188;8.896;2022-10-16T10:46:38;17.90;99.90
30678;DHT22;17437;47.188;8.896;2022-10-16T10:49:20;18.00;99.90
30678;DHT22;17437;47.188;8.896;2022-10-16T10:51:58;18.20;99.90
30678;DHT22;17437;47.188;8.896;2022-10-16T10:54:35;18.20;99.90
30678;DHT22;17437;47.188;8.896;2022-10-16T10:57:11;18.40;99.90
30678;DHT22;17437;47.188;8.896;2022-10-16T10:59:54;18.50;99.90
30678;DHT22;17437;47.188;8.896;2022-10-16T11:02:31;18.50;99.90
30678;DHT22;17437;47.188;8.896;2022-10-16T11:05:22;18.60;99.90
30678;DHT22;17437;47.188;8.896;2022-10-16T11:07:57;18.50;99.90
30678;DHT22;17437;47.188;8.896;2022-10-16T11:10:33;18.60;99.90
30678;DHT22;17437;47.188;8.896;2022-10-16T11:13:09;18.60;99.90
30678;DHT22;17437;47.188;8.896;2022-10-16T11:15:42;18.70;99.90
30678;DHT22;17437;47.188;8.896;2022-10-16T11:18:16;18.70;99.90
30678;DHT22;17437;47.188;8.896;2022-10-16T11:20:51;18.80;99.90
30678;DHT22;17437;47.188;8.896;2022-10-16T11:23:26;18.90;99.90
30678;DHT22;17437;47.188;8.896;2022-10-16T11:26:00;19.00;99.90
30678;DHT22;17437;47.188;8.896;2022-10-16T11:28:35;19.00;99.90
30678;DHT22;17437;47.188;8.896;2022-10-16T11:31:11;19.00;99.90
30678;DHT22;17437;47.188;8.896;2022-10-16T11:33:45;19.10;99.90
30678;DHT22;17437;47.188;8.896;2022-10-16T11:36:20;19.20;99.90
30678;DHT22;17437;47.188;8.896;2022-10-16T11:38:57;19.40;99.90
30678;DHT22;17437;47.188;8.896;2022-10-16T11:41:32;19.50;99.90
30678;DHT22;17437;47.188;8.896;2022-10-16T11:44:14;19.50;99.90
30678;DHT22;17437;47.188;8.896;2022-10-16T11:46:50;19.50;99.90
30678;DHT22;17437;47.188;8.896;2022-10-16T11:49:25;19.50;99.90
30678;DHT22;17437;47.188;8.896;2022-10-16T11:52:00;19.50;99.90
30678;DHT22;17437;47.188;8.896;2022-10-16T11:54:36;19.80;99.90
30678;DHT22;17437;47.188;8.896;2022-10-16T11:57:13;19.90;99.90
30678;DHT22;17437;47.188;8.896;2022-10-16T11:59:46;19.90;99.90
30678;DHT22;17437;47.188;8.896;2022-10-16T12:02:28;20.10;99.90
30678;DHT22;17437;47.188;8.896;2022-10-16T12:05:05;20.20;99.90
30678;DHT22;17437;47.188;8.896;2022-10-16T12:07:39;20.30;99.90
30678;DHT22;17437;47.188;8.896;2022-10-16T12:10:19;20.40;99.90
30678;DHT22;17437;47.188;8.896;2022-10-16T12:12:52;20.50;99.90
30678;DHT22;17437;47.188;8.896;2022-10-16T12:15:26;20.50;99.90
30678;DHT22;17437;47.188;8.896;2022-10-16T12:18:00;20.40;99.90
30678;DHT22;17437;47.188;8.896;2022-10-16T12:20:32;20.50;99.90
30678;DHT22;17437;47.188;8.896;2022-10-16T12:23:07;20.60;99.90
30678;DHT22;17437;47.188;8.896;2022-10-16T12:25:40;20.60;99.90
30678;DHT22;17437;47.188;8.896;2022-10-16T12:28:21;20.60;99.90
30678;DHT22;17437;47.188;8.896;2022-10-16T12:30:57;20.60;99.90
30678;DHT22;17437;47.188;8.896;2022-10-16T12:33:30;20.60;99.90
30678;DHT22;17437;47.188;8.896;2022-10-16T12:36:05;20.60;99.90
30678;DHT22;17437;47.188;8.896;2022-10-16T12:38:45;20.60;99.90
30678;DHT22;17437;47.188;8.896;2022-10-16T12:41:11;20.70;99.90
30678;DHT22;17437;47.188;8.896;2022-10-16T12:43:45;20.80;99.90
30678;DHT22;17437;47.188;8.896;2022-10-16T12:46:33;20.90;99.90
30678;DHT22;17437;47.188;8.896;2022-10-16T12:49:14;20.90;99.90
30678;DHT22;17437;47.188;8.896;2022-10-16T12:51:42;20.90;99.90
30678;DHT22;17437;47.188;8.896;2022-10-16T12:54:15;20.90;99.90
30678;DHT22;17437;47.188;8.896;2022-10-16T12:56:54;21.00;99.90
30678;DHT22;17437;47.188;8.896;2022-10-16T12:59:37;21.10;99.90
30678;DHT22;17437;47.188;8.896;2022-10-16T13:02:19;21.20;99.90
30678;DHT22;17437;47.188;8.896;2022-10-16T13:05:08;21.30;99.90
30678;DHT22;17437;47.188;8.896;2022-10-16T13:07:50;21.40;99.90
30678;DHT22;17437;47.188;8.896;2022-10-16T13:10:25;21.40;99.90
30678;DHT22;17437;47.188;8.896;2022-10-16T13:13:07;21.40;99.90
30678;DHT22;17437;47.188;8.896;2022-10-16T13:15:52;21.30;99.90
30678;DHT22;17437;47.188;8.896;2022-10-16T13:18:27;21.40;99.90
30678;DHT22;17437;47.188;8.896;2022-10-16T13:21:07;21.40;99.90
30678;DHT22;17437;47.188;8.896;2022-10-16T13:23:42;21.40;99.90
30678;DHT22;17437;47.188;8.896;2022-10-16T13:26:20;21.30;99.90
30678;DHT22;17437;47.188;8.896;2022-10-16T13:28:51;21.10;99.90
30678;DHT22;17437;47.188;8.896;2022-10-16T13:31:24;21.10;99.90
30678;DHT22;17437;47.188;8.896;2022-10-16T13:33:58;21.20;99.90
30678;DHT22;17437;47.188;8.896;2022-10-16T13:36:34;21.30;99.90
30678;DHT22;17437;47.188;8.896;2022-10-16T13:39:13;21.40;99.90
30678;DHT22;17437;47.188;8.896;2022-10-16T13:41:45;21.50;99.90
30678;DHT22;17437;47.188;8.896;2022-10-16T13:44:18;21.50;99.90
30678;DHT22;17437;47.188;8.896;2022-10-16T13:46:59;21.60;99.90
30678;DHT22;17437;47.188;8.896;2022-10-16T13:49:30;21.60;99.90
30678;DHT22;17437;47.188;8.896;2022-10-16T13:52:02;21.60;99.90
30678;DHT22;17437;47.188;8.896;2022-10-16T13:54:33;21.60;99.90
30678;DHT22;17437;47.188;8.896;2022-10-16T13:57:06;21.60;99.90
30678;DHT22;17437;47.188;8.896;2022-10-16T13:59:40;21.50;99.90
30678;DHT22;17437;47.188;8.896;2022-10-16T14:02:19;21.60;99.90
30678;DHT22;17437;47.188;8.896;2022-10-16T14:04:51;21.60;99.90
30678;DHT22;17437;47.188;8.896;2022-10-16T14:07:26;21.50;99.90
30678;DHT22;17437;47.188;8.896;2022-10-16T14:10:00;21.50;99.90
30678;DHT22;17437;47.188;8.896;2022-10-16T14:12:33;21.60;99.90
30678;DHT22;17437;47.188;8.896;2022-10-16T14:15:16;21.60;99.90
30678;DHT22;17437;47.188;8.896;2022-10-16T14:17:50;21.60;99.90
30678;DHT22;17437;47.188;8.896;2022-10-16T14:20:24;21.60;99.90
30678;DHT22;17437;47.188;8.896;2022-10-16T14:26:15;21.50;99.90
30678;DHT22;17437;47.188;8.896;2022-10-16T14:28:48;21.60;99.90
30678;DHT22;17437;47.188;8.896;2022-10-16T14:31:34;21.60;99.90
30678;DHT22;17437;47.188;8.896;2022-10-16T14:34:27;21.50;99.90
30678;DHT22;17437;47.188;8.896;2022-10-16T14:37:01;21.50;99.90
30678;DHT22;17437;47.188;8.896;2022-10-16T14:39:36;21.50;99.90
30678;DHT22;17437;47.188;8.896;2022-10-16T14:42:14;21.40;99.90
30678;DHT22;17437;47.188;8.896;2022-10-16T14:44:48;21.40;99.90
30678;DHT22;17437;47.188;8.896;2022-10-16T14:47:22;21.40;99.90
30678;DHT22;17437;47.188;8.896;2022-10-16T14:49:56;21.30;99.90
30678;DHT22;17437;47.188;8.896;2022-10-16T14:52:29;21.40;99.90
30678;DHT22;17437;47.188;8.896;2022-10-16T14:55:00;21.40;99.90
30678;DHT22;17437;47.188;8.896;2022-10-16T14:57:33;21.30;99.90
30678;DHT22;17437;47.188;8.896;2022-10-16T15:00:14;21.20;99.90
30678;DHT22;17437;47.188;8.896;2022-10-16T15:02:48;21.20;99.90
30678;DHT22;17437;47.188;8.896;2022-10-16T15:05:21;21.10;99.90
30678;DHT22;17437;47.188;8.896;2022-10-16T15:07:54;21.00;99.90
30678;DHT22;17437;47.188;8.896;2022-10-16T15:10:28;20.90;99.90
30678;DHT22;17437;47.188;8.896;2022-10-16T15:12:59;20.80;99.90
30678;DHT22;17437;47.188;8.896;2022-10-16T15:15:35;20.70;99.90
30678;DHT22;17437;47.188;8.896;2022-10-16T15:18:13;20.70;99.90
30678;DHT22;17437;47.188;8.896;2022-10-16T15:20:49;20.70;99.90
30678;DHT22;17437;47.188;8.896;2022-10-16T15:23:22;20.50;99.90
30678;DHT22;17437;47.188;8.896;2022-10-16T15:26:01;20.50;99.90
30678;DHT22;17437;47.188;8.896;2022-10-16T15:28:35;20.40;99.90
30678;DHT22;17437;47.188;8.896;2022-10-16T15:31:06;20.30;99.90
30678;DHT22;17437;47.188;8.896;2022-10-16T15:33:37;20.20;99.90
30678;DHT22;17437;47.188;8.896;2022-10-16T15:36:10;20.20;99.90
30678;DHT22;17437;47.188;8.896;2022-10-16T15:38:41;20.20;99.90
30678;DHT22;17437;47.188;8.896;2022-10-16T15:41:12;20.20;99.90
30678;DHT22;17437;47.188;8.896;2022-10-16T15:43:43;20.20;99.90
30678;DHT22;17437;47.188;8.896;2022-10-16T15:46:17;20.20;99.90
30678;DHT22;17437;47.188;8.896;2022-10-16T15:48:55;20.10;99.90
30678;DHT22;17437;47.188;8.896;2022-10-16T15:51:25;20.10;99.90
30678;DHT22;17437;47.188;8.896;2022-10-16T15:53:58;20.00;99.90
30678;DHT22;17437;47.188;8.896;2022-10-16T15:56:31;20.00;99.90
30678;DHT22;17437;47.188;8.896;2022-10-16T15:59:04;20.10;99.90
30678;DHT22;17437;47.188;8.896;2022-10-16T16:01:35;20.00;99.90
30678;DHT22;17437;47.188;8.896;2022-10-16T16:04:07;19.80;99.90
30678;DHT22;17437;47.188;8.896;2022-10-16T16:06:40;19.60;99.90
30678;DHT22;17437;47.188;8.896;2022-10-16T16:09:13;19.40;99.90
30678;DHT22;17437;47.188;8.896;2022-10-16T16:11:44;19.20;99.90
30678;DHT22;17437;47.188;8.896;2022-10-16T16:14:16;19.10;99.90
30678;DHT22;17437;47.188;8.896;2022-10-16T16:16:47;19.00;99.90